createdAt,value
2022-12-28T00:00:47.301Z,997.99
2022-12-28T00:01:47.294Z,997.99
2022-12-28T00:02:47.276Z,998.01
2022-12-28T00:03:47.246Z,997.98
2022-12-28T00:04:47.218Z,997.97
2022-12-28T00:05:47.215Z,997.97
2022-12-28T00:06:47.196Z,997.97
2022-12-28T00:07:47.182Z,997.95
2022-12-28T00:08:47.173Z,997.83
2022-12-28T00:09:47.178Z,997.83
2022-12-28T00:11:07.936Z,997.86
2022-12-28T00:11:47.155Z,997.84
2022-12-28T00:12:47.128Z,997.88
2022-12-28T00:13:47.127Z,997.78
2022-12-28T00:14:47.134Z,997.79
2022-12-28T00:15:47.123Z,997.74
2022-12-28T00:16:47.158Z,997.71
2022-12-28T00:17:47.092Z,997.77
2022-12-28T00:18:47.082Z,997.72
2022-12-28T00:19:47.109Z,997.79
2022-12-28T00:20:47.065Z,997.70
2022-12-28T00:21:47.054Z,997.68
2022-12-28T00:22:47.023Z,997.62
2022-12-28T00:23:47.059Z,997.70
2022-12-28T00:24:47.011Z,997.71
2022-12-28T00:25:47.013Z,997.69
2022-12-28T00:26:46.986Z,997.67
2022-12-28T00:27:46.971Z,997.63
2022-12-28T00:28:46.972Z,997.69
2022-12-28T00:29:46.951Z,997.55
2022-12-28T00:30:46.947Z,997.69
2022-12-28T00:31:47.031Z,997.55
2022-12-28T00:32:46.917Z,997.51
2022-12-28T00:33:46.909Z,997.49
2022-12-28T00:34:46.896Z,997.57
2022-12-28T00:35:46.881Z,997.65
2022-12-28T00:37:09.695Z,997.74
2022-12-28T00:37:46.874Z,997.75
2022-12-28T00:38:46.859Z,997.77
2022-12-28T00:39:46.844Z,997.72
2022-12-28T00:40:46.835Z,997.72
2022-12-28T00:41:46.829Z,997.74
2022-12-28T00:42:46.819Z,997.69
2022-12-28T00:43:46.791Z,997.70
2022-12-28T00:44:46.789Z,997.68
2022-12-28T00:45:46.795Z,997.65
2022-12-28T00:46:46.765Z,997.68
2022-12-28T00:47:46.753Z,997.56
2022-12-28T00:48:46.766Z,997.51
2022-12-28T00:49:46.728Z,997.50
2022-12-28T00:50:46.715Z,997.47
2022-12-28T00:51:46.713Z,997.38
2022-12-28T00:52:46.703Z,997.41
2022-12-28T00:53:46.699Z,997.37
2022-12-28T00:54:46.703Z,997.27
2022-12-28T00:55:46.671Z,997.25
2022-12-28T00:56:46.649Z,997.23
2022-12-28T00:57:46.639Z,997.20
2022-12-28T00:58:46.636Z,997.17
2022-12-28T00:59:46.629Z,997.19
2022-12-28T01:00:46.662Z,997.23
2022-12-28T01:01:46.704Z,997.16
2022-12-28T01:02:46.655Z,997.23
2022-12-28T01:03:46.599Z,997.20
2022-12-28T01:04:46.566Z,997.16
2022-12-28T01:05:46.558Z,997.15
2022-12-28T01:06:46.543Z,997.05
2022-12-28T01:07:46.528Z,997.00
2022-12-28T01:08:46.528Z,997.01
2022-12-28T01:09:46.532Z,997.05
2022-12-28T01:10:46.494Z,997.12
2022-12-28T01:11:46.488Z,997.09
2022-12-28T01:12:46.481Z,997.09
2022-12-28T01:13:46.461Z,997.06
2022-12-28T01:14:46.453Z,997.00
2022-12-28T01:15:46.456Z,996.93
2022-12-28T01:16:46.456Z,996.90
2022-12-28T01:17:46.423Z,996.88
2022-12-28T01:18:46.420Z,996.84
2022-12-28T01:19:53.620Z,996.78
2022-12-28T01:20:46.400Z,996.72
2022-12-28T01:21:46.414Z,996.69
2022-12-28T01:22:46.359Z,996.72
2022-12-28T01:23:46.361Z,996.76
2022-12-28T01:24:46.344Z,996.79
2022-12-28T01:25:46.332Z,996.75
2022-12-28T01:26:46.323Z,996.75
2022-12-28T01:27:46.320Z,996.77
2022-12-28T01:28:46.301Z,996.83
2022-12-28T01:29:46.299Z,996.86
2022-12-28T01:30:46.293Z,996.83
2022-12-28T01:31:46.289Z,996.82
2022-12-28T01:32:46.262Z,996.81
2022-12-28T01:33:46.260Z,996.75
2022-12-28T01:34:46.235Z,996.77
2022-12-28T01:35:46.235Z,996.81
2022-12-28T01:36:46.224Z,996.73
2022-12-28T01:37:46.204Z,996.70
2022-12-28T01:38:46.224Z,996.60
2022-12-28T01:39:46.193Z,996.67
2022-12-28T01:40:46.173Z,996.67
2022-12-28T01:41:46.161Z,996.67
2022-12-28T01:42:46.163Z,996.59
2022-12-28T01:43:46.141Z,996.65
2022-12-28T01:44:46.136Z,996.63
2022-12-28T01:45:46.139Z,996.60
2022-12-28T01:46:46.117Z,996.57
2022-12-28T01:47:46.089Z,996.48
2022-12-28T01:48:46.105Z,996.51
2022-12-28T01:49:46.102Z,996.44
2022-12-28T01:50:46.062Z,996.39
2022-12-28T01:51:46.058Z,996.38
2022-12-28T01:52:46.045Z,996.39
2022-12-28T01:53:46.023Z,996.34
2022-12-28T01:54:46.010Z,996.40
2022-12-28T01:55:46.004Z,996.40
2022-12-28T01:56:45.989Z,996.31
2022-12-28T01:57:45.981Z,996.22
2022-12-28T01:58:45.971Z,996.28
2022-12-28T01:59:45.980Z,996.29
2022-12-28T02:00:45.953Z,996.33
2022-12-28T02:01:46.017Z,996.33
2022-12-28T02:02:46.102Z,996.27
2022-12-28T02:03:45.919Z,996.29
2022-12-28T02:04:45.894Z,996.30
2022-12-28T02:05:45.908Z,996.25
2022-12-28T02:06:45.880Z,996.21
2022-12-28T02:07:45.874Z,996.11
2022-12-28T02:08:45.864Z,996.15
2022-12-28T02:09:45.851Z,996.11
2022-12-28T02:10:49.315Z,996.09
2022-12-28T02:11:45.822Z,996.08
2022-12-28T02:12:45.869Z,996.06
2022-12-28T02:13:45.803Z,996.14
2022-12-28T02:14:45.789Z,996.04
2022-12-28T02:15:45.804Z,996.06
2022-12-28T02:16:45.867Z,996.11
2022-12-28T02:17:45.761Z,996.10
2022-12-28T02:18:45.764Z,996.13
2022-12-28T02:19:45.744Z,996.13
2022-12-28T02:20:45.718Z,996.09
2022-12-28T02:21:45.712Z,995.98
2022-12-28T02:22:45.697Z,995.96
2022-12-28T02:23:45.688Z,995.94
2022-12-28T02:24:45.841Z,995.98
2022-12-28T02:25:45.672Z,995.93
2022-12-28T02:26:45.675Z,995.84
2022-12-28T02:27:45.644Z,995.91
2022-12-28T02:28:45.645Z,995.82
2022-12-28T02:29:45.621Z,995.93
2022-12-28T02:30:45.679Z,995.94
2022-12-28T02:31:45.627Z,995.82
2022-12-28T02:32:45.582Z,995.85
2022-12-28T02:33:45.578Z,995.85
2022-12-28T02:34:45.573Z,995.82
2022-12-28T02:35:45.577Z,995.78
2022-12-28T02:36:45.547Z,995.80
2022-12-28T02:37:45.542Z,995.77
2022-12-28T02:38:45.519Z,995.72
2022-12-28T02:39:45.519Z,995.75
2022-12-28T02:40:45.505Z,995.67
2022-12-28T02:41:45.493Z,995.68
2022-12-28T02:42:45.486Z,995.60
2022-12-28T02:43:45.470Z,995.61
2022-12-28T02:44:45.457Z,995.65
2022-12-28T02:45:45.481Z,995.60
2022-12-28T02:46:45.438Z,995.64
2022-12-28T02:47:45.442Z,995.59
2022-12-28T02:48:45.418Z,995.59
2022-12-28T02:49:45.394Z,995.48
2022-12-28T02:50:45.396Z,995.52
2022-12-28T02:51:45.382Z,995.51
2022-12-28T02:52:45.380Z,995.53
2022-12-28T02:53:45.367Z,995.50
2022-12-28T02:54:45.357Z,995.44
2022-12-28T02:55:45.330Z,995.30
2022-12-28T02:56:45.325Z,995.36
2022-12-28T02:57:45.321Z,995.36
2022-12-28T02:58:45.307Z,995.36
2022-12-28T02:59:45.297Z,995.28
2022-12-28T03:00:45.300Z,995.30
2022-12-28T03:01:45.436Z,995.32
2022-12-28T03:02:45.410Z,995.26
2022-12-28T03:03:45.245Z,995.29
2022-12-28T03:04:45.238Z,995.24
2022-12-28T03:05:45.228Z,995.19
2022-12-28T03:06:45.210Z,995.19
2022-12-28T03:07:45.212Z,995.15
2022-12-28T03:08:45.196Z,995.13
2022-12-28T03:09:45.171Z,995.08
2022-12-28T03:10:45.169Z,995.12
2022-12-28T03:11:45.153Z,995.17
2022-12-28T03:12:45.159Z,995.15
2022-12-28T03:13:45.268Z,995.10
2022-12-28T03:14:45.115Z,995.14
2022-12-28T03:15:45.173Z,995.08
2022-12-28T03:16:45.102Z,995.05
2022-12-28T03:17:45.089Z,995.07
2022-12-28T03:18:45.074Z,995.08
2022-12-28T03:19:45.086Z,995.06
2022-12-28T03:20:45.056Z,995.08
2022-12-28T03:21:45.057Z,995.07
2022-12-28T03:22:45.049Z,995.10
2022-12-28T03:23:45.040Z,995.02
2022-12-28T03:24:45.010Z,995.01
2022-12-28T03:25:45.006Z,994.96
2022-12-28T03:26:44.993Z,994.94
2022-12-28T03:27:44.977Z,994.90
2022-12-28T03:28:44.964Z,994.93
2022-12-28T03:29:44.964Z,994.87
2022-12-28T03:30:44.992Z,994.86
2022-12-28T03:31:44.938Z,994.81
2022-12-28T03:32:44.937Z,994.79
2022-12-28T03:33:44.918Z,994.78
2022-12-28T03:34:44.918Z,994.79
2022-12-28T03:35:44.894Z,994.69
2022-12-28T03:36:44.884Z,994.66
2022-12-28T03:37:44.872Z,994.64
2022-12-28T03:38:44.852Z,994.63
2022-12-28T03:39:44.849Z,994.64
2022-12-28T03:40:44.860Z,994.74
2022-12-28T03:41:44.820Z,994.66
2022-12-28T03:42:44.814Z,994.63
2022-12-28T03:43:44.807Z,994.63
2022-12-28T03:44:44.793Z,994.67
2022-12-28T03:45:47.541Z,994.64
2022-12-28T03:46:44.844Z,994.53
2022-12-28T03:47:44.772Z,994.55
2022-12-28T03:48:44.761Z,994.57
2022-12-28T03:49:44.745Z,994.56
2022-12-28T03:50:44.738Z,994.58
2022-12-28T03:51:44.736Z,994.62
2022-12-28T03:52:44.718Z,994.64
2022-12-28T03:53:44.697Z,994.61
2022-12-28T03:54:44.703Z,994.49
2022-12-28T03:55:44.678Z,994.54
2022-12-28T03:56:44.656Z,994.49
2022-12-28T03:57:44.645Z,994.44
2022-12-28T03:58:44.655Z,994.43
2022-12-28T03:59:44.625Z,994.42
2022-12-28T04:00:44.623Z,994.40
2022-12-28T04:01:44.735Z,994.38
2022-12-28T04:02:44.707Z,994.37
2022-12-28T04:03:44.576Z,994.42
2022-12-28T04:04:44.585Z,994.37
2022-12-28T04:05:44.568Z,994.33
2022-12-28T04:06:44.569Z,994.31
2022-12-28T04:07:44.549Z,994.24
2022-12-28T04:08:44.530Z,994.25
2022-12-28T04:09:44.527Z,994.28
2022-12-28T04:10:44.508Z,994.36
2022-12-28T04:11:44.499Z,994.28
2022-12-28T04:12:44.494Z,994.24
2022-12-28T04:13:44.499Z,994.25
2022-12-28T04:14:44.460Z,994.27
2022-12-28T04:15:44.504Z,994.29
2022-12-28T04:16:44.472Z,994.25
2022-12-28T04:17:44.446Z,994.28
2022-12-28T04:18:44.432Z,994.18
2022-12-28T04:19:44.419Z,994.24
2022-12-28T04:20:44.412Z,994.20
2022-12-28T04:21:44.393Z,994.18
2022-12-28T04:22:44.391Z,994.13
2022-12-28T04:23:44.419Z,994.16
2022-12-28T04:24:44.374Z,994.22
2022-12-28T04:25:44.353Z,994.22
2022-12-28T04:26:44.350Z,994.16
2022-12-28T04:27:44.322Z,994.15
2022-12-28T04:28:44.334Z,994.17
2022-12-28T04:29:44.301Z,994.17
2022-12-28T04:30:44.302Z,994.09
2022-12-28T04:31:44.402Z,994.13
2022-12-28T04:32:44.297Z,994.16
2022-12-28T04:33:44.267Z,994.11
2022-12-28T04:34:48.412Z,994.11
2022-12-28T04:35:44.238Z,994.15
2022-12-28T04:36:44.231Z,994.13
2022-12-28T04:37:44.222Z,994.08
2022-12-28T04:38:44.276Z,994.04
2022-12-28T04:39:55.223Z,994.06
2022-12-28T04:40:44.198Z,994.08
2022-12-28T04:41:44.195Z,993.98
2022-12-28T04:42:44.204Z,994.02
2022-12-28T04:43:44.162Z,994.01
2022-12-28T04:44:44.148Z,993.99
2022-12-28T04:45:44.145Z,993.99
2022-12-28T04:46:44.244Z,993.94
2022-12-28T04:47:44.134Z,993.90
2022-12-28T04:48:44.098Z,993.85
2022-12-28T04:49:44.089Z,993.94
2022-12-28T04:50:44.072Z,993.97
2022-12-28T04:51:44.077Z,993.90
2022-12-28T04:52:44.054Z,993.96
2022-12-28T04:53:44.059Z,993.86
2022-12-28T04:54:44.051Z,993.81
2022-12-28T04:55:44.078Z,993.92
2022-12-28T04:56:44.015Z,993.86
2022-12-28T04:57:44.002Z,993.83
2022-12-28T04:58:43.999Z,993.82
2022-12-28T04:59:43.995Z,993.82
2022-12-28T05:00:44.049Z,993.80
2022-12-28T05:01:44.106Z,993.81
2022-12-28T05:02:46.402Z,993.67
2022-12-28T05:03:48.202Z,993.71
2022-12-28T05:04:43.927Z,993.68
2022-12-28T05:05:43.918Z,993.70
2022-12-28T05:06:43.915Z,993.69
2022-12-28T05:07:43.895Z,993.68
2022-12-28T05:08:43.917Z,993.64
2022-12-28T05:09:43.871Z,993.68
2022-12-28T05:10:43.899Z,993.60
2022-12-28T05:11:43.859Z,993.60
2022-12-28T05:12:43.854Z,993.60
2022-12-28T05:13:43.841Z,993.58
2022-12-28T05:14:43.825Z,993.59
2022-12-28T05:15:43.810Z,993.63
2022-12-28T05:16:43.831Z,993.63
2022-12-28T05:17:43.792Z,993.58
2022-12-28T05:18:43.808Z,993.64
2022-12-28T05:19:43.775Z,993.62
2022-12-28T05:20:43.765Z,993.60
2022-12-28T05:21:43.752Z,993.59
2022-12-28T05:22:43.747Z,993.65
2022-12-28T05:23:43.739Z,993.69
2022-12-28T05:24:43.726Z,993.63
2022-12-28T05:25:43.698Z,993.65
2022-12-28T05:26:43.688Z,993.67
2022-12-28T05:27:43.689Z,993.56
2022-12-28T05:28:43.658Z,993.64
2022-12-28T05:29:43.682Z,993.64
2022-12-28T05:30:43.654Z,993.62
2022-12-28T05:31:43.674Z,993.58
2022-12-28T05:32:43.625Z,993.55
2022-12-28T05:33:43.613Z,993.58
2022-12-28T05:34:43.618Z,993.62
2022-12-28T05:35:43.590Z,993.58
2022-12-28T05:36:43.643Z,993.59
2022-12-28T05:37:43.576Z,993.58
2022-12-28T05:38:43.563Z,993.60
2022-12-28T05:39:43.552Z,993.62
2022-12-28T05:40:43.569Z,993.61
2022-12-28T05:41:43.657Z,993.53
2022-12-28T05:42:47.989Z,993.56
2022-12-28T05:43:43.514Z,993.56
2022-12-28T05:44:43.505Z,993.60
2022-12-28T05:45:43.497Z,993.58
2022-12-28T05:46:43.517Z,993.59
2022-12-28T05:47:43.490Z,993.52
2022-12-28T05:48:43.449Z,993.57
2022-12-28T05:49:43.457Z,993.55
2022-12-28T05:50:43.437Z,993.53
2022-12-28T05:51:43.440Z,993.56
2022-12-28T05:52:43.423Z,993.53
2022-12-28T05:53:43.406Z,993.56
2022-12-28T05:54:43.386Z,993.57
2022-12-28T05:55:43.376Z,993.51
2022-12-28T05:56:43.357Z,993.49
2022-12-28T05:57:43.357Z,993.53
2022-12-28T05:58:43.352Z,993.49
2022-12-28T05:59:43.367Z,993.52
2022-12-28T06:00:43.320Z,993.52
2022-12-28T06:01:43.478Z,993.48
2022-12-28T06:02:43.426Z,993.42
2022-12-28T06:03:43.317Z,993.40
2022-12-28T06:04:43.274Z,993.40
2022-12-28T06:05:43.263Z,993.39
2022-12-28T06:06:43.272Z,993.32
2022-12-28T06:07:43.255Z,993.34
2022-12-28T06:08:43.241Z,993.32
2022-12-28T06:09:43.234Z,993.39
2022-12-28T06:10:43.212Z,993.38
2022-12-28T06:11:43.207Z,993.39
2022-12-28T06:12:43.188Z,993.36
2022-12-28T06:13:43.188Z,993.40
2022-12-28T06:14:43.188Z,993.37
2022-12-28T06:15:43.155Z,993.37
2022-12-28T06:16:43.328Z,993.33
2022-12-28T06:17:43.137Z,993.33
2022-12-28T06:18:43.140Z,993.35
2022-12-28T06:19:43.102Z,993.33
2022-12-28T06:20:43.125Z,993.32
2022-12-28T06:21:43.168Z,993.35
2022-12-28T06:22:43.092Z,993.28
2022-12-28T06:23:43.072Z,993.26
2022-12-28T06:24:43.056Z,993.26
2022-12-28T06:25:43.062Z,993.26
2022-12-28T06:26:43.047Z,993.21
2022-12-28T06:27:43.017Z,993.22
2022-12-28T06:28:43.009Z,993.17
2022-12-28T06:29:42.998Z,993.16
2022-12-28T06:30:47.554Z,993.16
2022-12-28T06:31:43.015Z,993.17
2022-12-28T06:32:42.968Z,993.19
2022-12-28T06:33:42.948Z,993.20
2022-12-28T06:34:42.970Z,993.21
2022-12-28T06:35:42.948Z,993.18
2022-12-28T06:36:42.945Z,993.17
2022-12-28T06:37:42.907Z,993.20
2022-12-28T06:38:42.895Z,993.13
2022-12-28T06:39:42.889Z,993.14
2022-12-28T06:41:42.896Z,993.15
2022-12-28T06:42:42.871Z,993.16
2022-12-28T06:43:42.870Z,993.25
2022-12-28T06:44:44.903Z,993.20
2022-12-28T06:45:42.868Z,993.22
2022-12-28T06:46:42.824Z,993.21
2022-12-28T06:47:42.799Z,993.21
2022-12-28T06:48:42.827Z,993.19
2022-12-28T06:49:42.780Z,993.21
2022-12-28T06:50:42.776Z,993.26
2022-12-28T06:51:42.752Z,993.22
2022-12-28T06:52:42.735Z,993.22
2022-12-28T06:53:42.753Z,993.18
2022-12-28T06:54:42.734Z,993.24
2022-12-28T06:55:42.711Z,993.23
2022-12-28T06:56:42.706Z,993.19
2022-12-28T06:57:42.701Z,993.23
2022-12-28T06:58:42.912Z,993.19
2022-12-28T06:59:42.832Z,993.24
2022-12-28T07:00:42.659Z,993.30
2022-12-28T07:01:42.775Z,993.24
2022-12-28T07:02:42.727Z,993.27
2022-12-28T07:03:42.670Z,993.24
2022-12-28T07:04:42.619Z,993.30
2022-12-28T07:05:42.605Z,993.33
2022-12-28T07:06:42.606Z,993.29
2022-12-28T07:07:42.595Z,993.37
2022-12-28T07:08:42.567Z,993.35
2022-12-28T07:09:42.564Z,993.34
2022-12-28T07:10:42.556Z,993.33
2022-12-28T07:11:42.540Z,993.39
2022-12-28T07:12:42.537Z,993.32
2022-12-28T07:13:42.518Z,993.37
2022-12-28T07:14:42.503Z,993.41
2022-12-28T07:15:42.496Z,993.38
2022-12-28T07:17:12.920Z,993.39
2022-12-28T07:18:14.547Z,993.37
2022-12-28T07:19:13.907Z,993.37
2022-12-28T07:20:14.870Z,993.40
2022-12-28T07:21:13.889Z,993.43
2022-12-28T07:22:13.874Z,993.38
2022-12-28T07:23:13.856Z,993.37
2022-12-28T07:24:13.868Z,993.41
2022-12-28T07:25:13.850Z,993.40
2022-12-28T07:26:13.825Z,993.33
2022-12-28T07:27:13.810Z,993.38
2022-12-28T07:28:13.809Z,993.30
2022-12-28T07:29:13.794Z,993.35
2022-12-28T07:30:13.797Z,993.31
2022-12-28T07:31:13.801Z,993.32
2022-12-28T07:32:13.762Z,993.28
2022-12-28T07:33:13.764Z,993.31
2022-12-28T07:34:13.759Z,993.30
2022-12-28T07:35:13.731Z,993.31
2022-12-28T07:36:13.728Z,993.28
2022-12-28T07:37:13.710Z,993.24
2022-12-28T07:38:17.974Z,993.28
2022-12-28T07:39:13.690Z,993.25
2022-12-28T07:40:13.696Z,993.18
2022-12-28T07:41:13.659Z,993.25
2022-12-28T07:42:13.660Z,993.21
2022-12-28T07:43:13.638Z,993.24
2022-12-28T07:44:13.626Z,993.26
2022-12-28T07:45:13.616Z,993.21
2022-12-28T07:46:13.706Z,993.23
2022-12-28T07:47:13.588Z,993.21
2022-12-28T07:48:13.587Z,993.22
2022-12-28T07:49:13.572Z,993.22
2022-12-28T07:50:13.558Z,993.20
2022-12-28T07:51:13.556Z,993.15
2022-12-28T07:52:13.544Z,993.20
2022-12-28T07:53:18.713Z,993.23
2022-12-28T07:54:13.522Z,993.21
2022-12-28T07:55:13.512Z,993.25
2022-12-28T07:56:13.498Z,993.18
2022-12-28T07:57:13.506Z,993.22
2022-12-28T07:58:13.492Z,993.16
2022-12-28T07:59:13.484Z,993.18
2022-12-28T08:00:13.449Z,993.17
2022-12-28T08:01:13.546Z,993.22
2022-12-28T08:02:13.533Z,993.14
2022-12-28T08:03:13.447Z,993.14
2022-12-28T08:04:13.476Z,993.10
2022-12-28T08:05:13.381Z,993.12
2022-12-28T08:06:13.380Z,993.12
2022-12-28T08:07:13.379Z,993.08
2022-12-28T08:08:13.360Z,993.11
2022-12-28T08:09:13.351Z,993.09
2022-12-28T08:10:13.354Z,993.05
2022-12-28T08:11:13.324Z,993.04
2022-12-28T08:12:13.316Z,993.08
2022-12-28T08:13:13.298Z,993.10
2022-12-28T08:14:13.322Z,993.07
2022-12-28T08:15:13.278Z,993.08
2022-12-28T08:16:13.302Z,993.09
2022-12-28T08:17:17.484Z,993.11
2022-12-28T08:18:13.250Z,993.06
2022-12-28T08:19:13.572Z,993.11
2022-12-28T08:20:13.218Z,993.12
2022-12-28T08:21:13.223Z,993.06
2022-12-28T08:22:13.197Z,993.11
2022-12-28T08:23:13.193Z,993.12
2022-12-28T08:24:13.188Z,993.07
2022-12-28T08:25:13.168Z,993.06
2022-12-28T08:26:13.152Z,993.05
2022-12-28T08:27:13.154Z,993.07
2022-12-28T08:28:13.131Z,993.07
2022-12-28T08:29:13.116Z,993.05
2022-12-28T08:30:13.104Z,993.08
2022-12-28T08:31:13.168Z,993.05
2022-12-28T08:32:13.100Z,993.02
2022-12-28T08:33:13.076Z,993.06
2022-12-28T08:34:13.067Z,993.08
2022-12-28T08:35:13.050Z,993.10
2022-12-28T08:36:13.043Z,993.06
2022-12-28T08:37:13.041Z,993.12
2022-12-28T08:38:13.017Z,993.09
2022-12-28T08:39:13.015Z,993.09
2022-12-28T08:40:12.995Z,993.05
2022-12-28T08:41:12.980Z,993.07
2022-12-28T08:42:12.992Z,993.06
2022-12-28T08:43:12.968Z,993.09
2022-12-28T08:44:12.950Z,993.01
2022-12-28T08:45:12.946Z,992.98
2022-12-28T08:46:13.152Z,992.96
2022-12-28T08:47:12.983Z,992.99
2022-12-28T08:48:12.913Z,992.99
2022-12-28T08:49:12.906Z,993.04
2022-12-28T08:50:13.534Z,993.03
2022-12-28T08:51:12.900Z,993.08
2022-12-28T08:52:12.870Z,993.01
2022-12-28T08:53:12.847Z,992.99
2022-12-28T08:54:12.839Z,993.00
2022-12-28T08:55:12.836Z,993.03
2022-12-28T08:56:12.850Z,993.04
2022-12-28T08:57:12.803Z,993.05
2022-12-28T08:58:12.798Z,993.04
2022-12-28T08:59:12.779Z,993.13
2022-12-28T09:00:12.765Z,993.02
2022-12-28T09:01:12.939Z,993.02
2022-12-28T09:02:12.875Z,992.99
2022-12-28T09:03:12.836Z,993.05
2022-12-28T09:04:12.722Z,993.02
2022-12-28T09:05:12.707Z,992.99
2022-12-28T09:06:12.699Z,993.05
2022-12-28T09:07:12.710Z,993.01
2022-12-28T09:08:12.680Z,993.02
2022-12-28T09:09:12.676Z,993.01
2022-12-28T09:10:12.706Z,993.01
2022-12-28T09:11:12.647Z,993.06
2022-12-28T09:12:12.640Z,993.03
2022-12-28T09:13:12.621Z,993.03
2022-12-28T09:14:17.158Z,993.04
2022-12-28T09:15:12.608Z,993.05
2022-12-28T09:16:12.701Z,993.08
2022-12-28T09:17:12.576Z,993.04
2022-12-28T09:18:12.591Z,993.03
2022-12-28T09:19:12.554Z,993.07
2022-12-28T09:20:12.551Z,993.09
2022-12-28T09:21:12.536Z,993.09
2022-12-28T09:22:12.528Z,993.11
2022-12-28T09:23:12.527Z,993.10
2022-12-28T09:24:12.509Z,993.13
2022-12-28T09:25:12.492Z,993.11
2022-12-28T09:26:12.474Z,993.13
2022-12-28T09:27:12.474Z,993.07
2022-12-28T09:28:12.467Z,993.08
2022-12-28T09:29:12.458Z,993.05
2022-12-28T09:30:12.443Z,993.05
2022-12-28T09:31:12.499Z,993.10
2022-12-28T09:32:12.408Z,993.10
2022-12-28T09:33:12.401Z,993.11
2022-12-28T09:35:12.387Z,993.10
2022-12-28T09:36:12.379Z,993.05
2022-12-28T09:37:12.363Z,993.06
2022-12-28T09:38:12.348Z,993.06
2022-12-28T09:39:12.462Z,993.13
2022-12-28T09:40:12.321Z,993.04
2022-12-28T09:41:12.329Z,993.09
2022-12-28T09:42:12.308Z,993.08
2022-12-28T09:43:12.314Z,993.11
2022-12-28T09:44:12.291Z,993.07
2022-12-28T09:45:12.277Z,993.10
2022-12-28T09:46:12.311Z,993.09
2022-12-28T09:47:12.281Z,993.11
2022-12-28T09:48:12.237Z,993.08
2022-12-28T09:49:12.250Z,993.08
2022-12-28T09:50:12.217Z,993.08
2022-12-28T09:51:12.214Z,993.08
2022-12-28T09:52:12.277Z,993.09
2022-12-28T09:53:12.205Z,993.04
2022-12-28T09:54:12.170Z,993.09
2022-12-28T09:55:12.176Z,993.02
2022-12-28T09:56:12.156Z,993.06
2022-12-28T09:57:12.159Z,993.00
2022-12-28T09:58:12.131Z,993.07
2022-12-28T09:59:12.114Z,993.04
2022-12-28T10:00:12.133Z,993.09
2022-12-28T10:01:12.162Z,993.03
2022-12-28T10:02:12.230Z,993.02
2022-12-28T10:03:12.106Z,993.03
2022-12-28T10:04:12.146Z,993.04
2022-12-28T10:05:12.053Z,993.06
2022-12-28T10:06:12.056Z,993.00
2022-12-28T10:07:12.029Z,993.03
2022-12-28T10:08:12.012Z,992.98
2022-12-28T10:09:12.002Z,992.94
2022-12-28T10:10:11.989Z,992.97
2022-12-28T10:11:11.995Z,992.96
2022-12-28T10:12:11.964Z,992.95
2022-12-28T10:13:37.139Z,992.97
2022-12-28T10:14:11.953Z,992.94
2022-12-28T10:15:11.935Z,992.91
2022-12-28T10:16:11.941Z,992.94
2022-12-28T10:17:11.932Z,992.88
2022-12-28T10:18:11.925Z,992.88
2022-12-28T10:19:11.919Z,992.89
2022-12-28T10:20:11.884Z,992.91
2022-12-28T10:21:11.902Z,992.93
2022-12-28T10:22:11.858Z,992.88
2022-12-28T10:23:11.850Z,992.89
2022-12-28T10:24:30.953Z,992.84
2022-12-28T10:25:11.838Z,992.85
2022-12-28T10:26:11.821Z,992.85
2022-12-28T10:27:11.817Z,992.85
2022-12-28T10:28:11.783Z,992.83
2022-12-28T10:29:11.785Z,992.79
2022-12-28T10:30:11.797Z,992.83
2022-12-28T10:31:11.784Z,992.79
2022-12-28T10:32:11.746Z,992.83
2022-12-28T10:33:13.952Z,992.76
2022-12-28T10:34:11.721Z,992.79
2022-12-28T10:35:11.725Z,992.78
2022-12-28T10:36:11.703Z,992.71
2022-12-28T10:37:14.374Z,992.68
2022-12-28T10:38:11.696Z,992.70
2022-12-28T10:39:11.672Z,992.70
2022-12-28T10:40:11.665Z,992.67
2022-12-28T10:41:11.649Z,992.63
2022-12-28T10:42:11.654Z,992.63
2022-12-28T10:43:11.649Z,992.64
2022-12-28T10:44:38.324Z,992.67
2022-12-28T10:45:11.603Z,992.58
2022-12-28T10:46:11.588Z,992.60
2022-12-28T10:47:11.692Z,992.60
2022-12-28T10:48:11.558Z,992.67
2022-12-28T10:49:15.518Z,992.60
2022-12-28T10:50:37.156Z,992.59
2022-12-28T10:51:11.542Z,992.57
2022-12-28T10:52:11.548Z,992.54
2022-12-28T10:53:11.529Z,992.49
2022-12-28T10:54:11.506Z,992.58
2022-12-28T10:55:11.510Z,992.58
2022-12-28T10:56:11.482Z,992.50
2022-12-28T10:57:11.461Z,992.52
2022-12-28T10:59:11.447Z,992.49
2022-12-28T11:00:11.440Z,992.50
2022-12-28T11:01:11.500Z,992.43
2022-12-28T11:02:11.539Z,992.39
2022-12-28T11:03:11.423Z,992.43
2022-12-28T11:04:11.394Z,992.39
2022-12-28T11:05:11.371Z,992.39
2022-12-28T11:06:11.384Z,992.37
2022-12-28T11:07:11.357Z,992.33
2022-12-28T11:08:11.338Z,992.36
2022-12-28T11:09:11.338Z,992.32
2022-12-28T11:10:11.326Z,992.30
2022-12-28T11:11:11.316Z,992.29
2022-12-28T11:12:11.315Z,992.29
2022-12-28T11:13:11.299Z,992.27
2022-12-28T11:14:11.293Z,992.26
2022-12-28T11:15:11.278Z,992.28
2022-12-28T11:16:11.316Z,992.21
2022-12-28T11:17:11.244Z,992.21
2022-12-28T11:18:11.257Z,992.18
2022-12-28T11:19:11.225Z,992.14
2022-12-28T11:20:11.215Z,992.14
2022-12-28T11:21:11.201Z,992.14
2022-12-28T11:22:11.200Z,992.14
2022-12-28T11:23:11.191Z,992.09
2022-12-28T11:24:11.162Z,992.14
2022-12-28T11:25:11.157Z,992.08
2022-12-28T11:26:11.155Z,992.06
2022-12-28T11:27:11.166Z,992.10
2022-12-28T11:28:11.127Z,992.10
2022-12-28T11:29:11.119Z,992.11
2022-12-28T11:30:19.247Z,992.08
2022-12-28T11:31:11.143Z,992.15
2022-12-28T11:32:11.090Z,992.13
2022-12-28T11:33:11.087Z,992.15
2022-12-28T11:34:11.086Z,992.06
2022-12-28T11:35:11.055Z,992.06
2022-12-28T11:36:11.048Z,992.02
2022-12-28T11:37:11.027Z,992.02
2022-12-28T11:38:11.029Z,992.01
2022-12-28T11:39:11.009Z,992.09
2022-12-28T11:40:11.010Z,992.06
2022-12-28T11:41:10.989Z,992.04
2022-12-28T11:42:38.061Z,991.93
2022-12-28T11:43:10.985Z,991.95
2022-12-28T11:44:10.974Z,992.03
2022-12-28T11:45:10.967Z,992.01
2022-12-28T11:46:10.973Z,991.98
2022-12-28T11:47:10.942Z,992.01
2022-12-28T11:48:10.913Z,991.98
2022-12-28T11:49:10.911Z,991.96
2022-12-28T11:50:10.900Z,991.95
2022-12-28T11:51:10.907Z,991.92
2022-12-28T11:52:10.857Z,991.94
2022-12-28T11:53:14.008Z,991.94
2022-12-28T11:54:10.846Z,991.90
2022-12-28T11:55:10.851Z,991.85
2022-12-28T11:56:10.833Z,991.78
2022-12-28T11:57:10.809Z,991.82
2022-12-28T11:58:10.827Z,991.79
2022-12-28T11:59:10.795Z,991.78
2022-12-28T12:00:10.792Z,991.83
2022-12-28T12:01:10.840Z,991.80
2022-12-28T12:02:10.837Z,991.75
2022-12-28T12:03:10.785Z,991.77
2022-12-28T12:04:10.771Z,991.76
2022-12-28T12:05:10.744Z,991.81
2022-12-28T12:06:10.727Z,991.78
2022-12-28T12:07:10.698Z,991.81
2022-12-28T12:08:10.689Z,991.89
2022-12-28T12:09:10.691Z,991.78
2022-12-28T12:10:10.680Z,991.77
2022-12-28T12:11:10.668Z,991.78
2022-12-28T12:12:15.905Z,991.87
2022-12-28T12:13:10.681Z,991.86
2022-12-28T12:14:10.630Z,991.73
2022-12-28T12:15:10.654Z,991.78
2022-12-28T12:16:10.635Z,991.66
2022-12-28T12:17:10.673Z,991.70
2022-12-28T12:18:10.583Z,991.64
2022-12-28T12:19:10.640Z,991.62
2022-12-28T12:20:10.568Z,991.62
2022-12-28T12:21:15.867Z,991.67
2022-12-28T12:22:10.556Z,991.63
2022-12-28T12:23:10.554Z,991.61
2022-12-28T12:24:10.527Z,991.66
2022-12-28T12:25:10.521Z,991.57
2022-12-28T12:26:10.514Z,991.57
2022-12-28T12:27:13.426Z,991.53
2022-12-28T12:28:10.478Z,991.53
2022-12-28T12:29:10.502Z,991.52
2022-12-28T12:30:10.476Z,991.53
2022-12-28T12:31:10.517Z,991.57
2022-12-28T12:32:10.441Z,991.52